Time;durP1;ratioP1;P1;durP2;ratioP2;P2;SDS_P1;SDS_P2;PMS_P1;PMS_P2;Temp;Humidity;BMP_temperature;BMP_pressure;BME280_temperature;BME280_humidity;BME280_pressure;Samples;Min_cycle;Max_cycle;Signal;HPM_P1;HPM_P2
2020/12/31 00:02:15;;;;;;;14.85;3.60;;;;;;;9.03;57.52;92820.03;5071526;28;20056;-44
2020/12/31 00:04:41;;;;;;;9.27;2.22;;;;;;;9.10;57.10;92813.78;5071613;28;20032;-42
2020/12/31 00:07:06;;;;;;;7.70;2.35;;;;;;;9.10;57.27;92816.53;5071353;28;20571;-42
2020/12/31 00:09:32;;;;;;;11.20;2.50;;;;;;;9.12;57.31;92818.72;5071166;28;20112;-42
2020/12/31 00:11:58;;;;;;;10.00;1.95;;;;;;;9.26;56.82;92811.00;5068787;28;20058;-42
2020/12/31 00:14:23;;;;;;;12.43;2.08;;;;;;;9.33;56.38;92816.50;5073042;28;20020;-42
2020/12/31 00:16:49;;;;;;;11.05;2.47;;;;;;;9.35;56.17;92815.91;5072856;28;20463;-44
2020/12/31 00:19:14;;;;;;;8.18;2.08;;;;;;;9.47;55.80;92822.47;5071563;28;20592;-44
2020/12/31 00:21:40;;;;;;;7.32;2.30;;;;;;;9.48;55.97;92832.22;5072657;28;20025;-42
2020/12/31 00:24:06;;;;;;;10.13;3.05;;;;;;;9.56;55.41;92824.66;5066788;28;20029;-44
2020/12/31 00:26:31;;;;;;;7.93;2.95;;;;;;;9.50;55.65;92824.88;5072542;28;20027;-41
2020/12/31 00:28:57;;;;;;;9.98;3.13;;;;;;;9.50;55.80;92833.13;5072629;28;20020;-41
2020/12/31 00:31:22;;;;;;;12.38;2.60;;;;;;;9.48;55.72;92829.47;5072322;28;20028;-41
2020/12/31 00:33:48;;;;;;;6.32;2.17;;;;;;;9.38;56.03;92825.81;5070550;28;20028;-42
2020/12/31 00:36:13;;;;;;;13.05;2.40;;;;;;;9.18;57.12;92824.06;5063366;28;20095;-41
2020/12/31 00:38:39;;;;;;;4.43;2.03;;;;;;;9.18;56.81;92833.75;5060971;28;20390;-40
2020/12/31 00:41:04;;;;;;;8.48;2.58;;;;;;;9.14;56.90;92819.66;5068633;28;20548;-43
2020/12/31 00:43:30;;;;;;;9.88;2.63;;;;;;;9.26;56.39;92816.50;5072074;28;20055;-43
2020/12/31 00:45:55;;;;;;;9.93;1.83;;;;;;;9.10;56.51;92802.75;5067937;28;20108;-42
2020/12/31 00:48:21;;;;;;;4.95;1.98;;;;;;;9.01;56.89;92800.59;5052209;28;20033;-42
2020/12/31 00:50:46;;;;;;;14.52;2.63;;;;;;;8.98;57.28;92806.47;5052296;28;20028;-42
2020/12/31 00:53:12;;;;;;;15.10;2.65;;;;;;;9.03;56.92;92803.50;5057792;28;20520;-43
2020/12/31 00:55:37;;;;;;;8.25;1.67;;;;;;;8.89;56.85;92771.25;5066670;28;20070;-42
2020/12/31 00:58:03;;;;;;;9.93;3.25;;;;;;;8.93;57.26;92801.88;5060377;28;20104;-42
2020/12/31 01:00:28;;;;;;;15.15;2.67;;;;;;;8.92;57.54;92806.66;5065177;28;20094;-43
2020/12/31 01:02:54;;;;;;;7.80;2.03;;;;;;;8.81;57.37;92790.53;5063364;28;20020;-43
2020/12/31 01:05:20;;;;;;;13.50;2.05;;;;;;;8.92;57.61;92803.91;5072049;28;20023;-43
2020/12/31 01:07:45;;;;;;;8.43;1.92;;;;;;;8.92;57.46;92803.91;5071822;28;20023;-42
2020/12/31 01:10:11;;;;;;;11.60;2.17;;;;;;;8.92;57.51;92798.38;5072050;28;20424;-43
2020/12/31 01:12:37;;;;;;;11.80;2.85;;;;;;;8.91;57.72;92785.94;5071726;28;20028;-42
2020/12/31 01:15:05;;;;;;;7.43;2.15;;;;;;;8.84;58.23;92789.41;5071736;28;20039;-43
2020/12/31 01:17:31;;;;;;;20.30;2.00;;;;;;;8.82;58.66;92781.00;5070458;28;20047;-42
2020/12/31 01:19:56;;;;;;;5.70;2.22;;;;;;;8.86;58.27;92772.34;5071442;28;20029;-43
2020/12/31 01:22:22;;;;;;;6.75;2.30;;;;;;;8.80;58.61;92756.03;5070661;28;20035;-43
2020/12/31 01:24:47;;;;;;;10.57;2.17;;;;;;;8.72;58.62;92755.31;5071432;28;20066;-42
2020/12/31 01:27:13;;;;;;;8.27;1.63;;;;;;;8.68;58.95;92774.25;5071403;28;20070;-42
2020/12/31 01:29:40;;;;;;;6.25;1.75;;;;;;;8.70;58.83;92766.16;5071445;28;20025;-44
2020/12/31 01:32:05;;;;;;;9.23;1.90;;;;;;;8.58;59.42;92769.81;5065504;28;20040;-43
2020/12/31 01:34:30;;;;;;;11.45;2.20;;;;;;;8.59;59.37;92755.53;5059590;28;20019;-43
2020/12/31 01:36:56;;;;;;;9.02;2.60;;;;;;;8.65;59.18;92734.06;5054968;28;20401;-43
2020/12/31 01:39:22;;;;;;;6.32;2.35;;;;;;;8.75;58.64;92745.25;5051185;28;20452;-43
2020/12/31 01:41:48;;;;;;;7.70;1.77;;;;;;;8.74;58.74;92738.25;5051445;28;20023;-43
2020/12/31 01:44:14;;;;;;;12.40;2.60;;;;;;;8.73;59.08;92743.03;5064661;28;20132;-43
2020/12/31 01:46:42;;;;;;;14.10;2.22;;;;;;;8.60;59.53;92751.47;5071204;28;20096;-43
2020/12/31 01:49:09;;;;;;;19.40;1.83;;;;;;;8.71;59.11;92736.59;5071277;28;20024;-45
2020/12/31 01:51:35;;;;;;;10.02;2.13;;;;;;;8.75;58.85;92731.47;5071099;28;20040;-43
2020/12/31 01:54:02;;;;;;;6.70;1.67;;;;;;;8.78;58.93;92733.09;5071012;28;20040;-43
2020/12/31 01:56:29;;;;;;;10.18;3.17;;;;;;;8.83;58.37;92732.91;5070953;28;20082;-44
2020/12/31 01:58:54;;;;;;;8.63;2.15;;;;;;;8.71;59.21;92736.59;5070761;28;20047;-43
2020/12/31 02:01:21;;;;;;;16.23;2.38;;;;;;;8.77;58.60;92739.91;5071103;28;20028;-43
2020/12/31 02:03:47;;;;;;;6.13;1.95;;;;;;;8.67;59.27;92736.97;5070983;28;20039;-45
2020/12/31 02:06:13;;;;;;;5.43;1.80;;;;;;;8.65;58.65;92725.06;5069352;28;20085;-45
2020/12/31 02:08:39;;;;;;;7.07;2.28;;;;;;;8.69;58.99;92737.16;5070850;28;20497;-46
2020/12/31 02:11:04;;;;;;;5.57;2.00;;;;;;;8.77;58.61;92729.59;5070487;28;20043;-45
2020/12/31 02:13:32;;;;;;;11.50;1.63;;;;;;;8.60;58.50;92704.72;5052548;28;20020;-47
2020/12/31 02:15:58;;;;;;;8.02;2.03;;;;;;;8.74;58.18;92725.22;5070380;28;20024;-45
2020/12/31 02:18:23;;;;;;;6.10;1.90;;;;;;;8.86;57.89;92726.28;5070218;28;20043;-42
2020/12/31 02:20:48;;;;;;;2.42;1.30;;;;;;;8.82;58.10;92725.19;5070247;28;20528;-44
2020/12/31 02:23:14;;;;;;;7.13;2.20;;;;;;;8.77;58.52;92726.84;5070170;28;20029;-45
2020/12/31 02:25:39;;;;;;;9.98;2.92;;;;;;;8.66;58.75;92727.28;5052555;28;20028;-43
2020/12/31 02:28:05;;;;;;;7.57;2.30;;;;;;;8.55;59.16;92733.16;5062873;28;20048;-45
2020/12/31 02:30:30;;;;;;;12.20;2.15;;;;;;;8.60;58.94;92728.75;5050143;28;20017;-45
2020/12/31 02:32:55;;;;;;;10.27;3.28;;;;;;;8.63;59.21;92725.63;5051089;28;20405;-44
2020/12/31 02:35:21;;;;;;;7.13;1.80;;;;;;;8.61;58.72;92725.44;5051194;28;20028;-46
2020/12/31 02:37:46;;;;;;;8.95;1.65;;;;;;;8.48;58.89;92711.91;5051242;28;20020;-48
2020/12/31 02:40:12;;;;;;;7.13;2.42;;;;;;;8.47;59.30;92710.41;5051303;28;20075;-49
2020/12/31 02:42:37;;;;;;;10.43;1.90;;;;;;;8.59;59.12;92708.75;5051210;28;20486;-50
2020/12/31 02:45:04;;;;;;;15.23;3.47;;;;;;;8.50;59.20;92697.56;5051186;28;20056;-47
2020/12/31 02:47:35;;;;;;;9.55;2.60;;;;;;;8.45;59.61;92701.97;5051211;28;20423;-51
2020/12/31 02:50:00;;;;;;;9.15;2.45;;;;;;;8.44;59.63;92703.28;5053162;28;20306;-47
2020/12/31 02:52:25;;;;;;;11.10;2.95;;;;;;;8.45;59.58;92695.75;5071212;28;20165;-46
2020/12/31 02:54:51;;;;;;;9.00;3.92;;;;;;;8.37;59.23;92695.78;5071259;28;20025;-46
2020/12/31 02:57:16;;;;;;;17.00;2.80;;;;;;;8.39;59.64;92695.94;5075154;28;20016;-47
2020/12/31 02:59:42;;;;;;;5.72;1.75;;;;;;;8.37;59.47;92702.00;5075009;28;20043;-45
2020/12/31 03:02:07;;;;;;;4.53;2.20;;;;;;;8.33;59.46;92696.16;5074864;28;20020;-43
2020/12/31 03:04:32;;;;;;;7.15;2.22;;;;;;;8.35;59.08;92684.59;5075056;28;20082;-47
2020/12/31 03:06:58;;;;;;;3.92;1.30;;;;;;;8.42;58.94;92683.84;5074696;28;20012;-48
2020/12/31 03:09:23;;;;;;;4.38;1.60;;;;;;;8.40;58.92;92678.19;5074914;28;20029;-43
2020/12/31 03:11:49;;;;;;;6.68;1.77;;;;;;;8.46;58.77;92683.47;5074786;28;20031;-42
2020/12/31 03:14:14;;;;;;;9.95;2.08;;;;;;;8.42;58.99;92664.59;5056818;28;20081;-52
2020/12/31 03:16:39;;;;;;;6.10;2.38;;;;;;;8.29;59.55;92665.50;5074442;28;20028;-52
2020/12/31 03:19:05;;;;;;;5.85;2.05;;;;;;;8.29;59.63;92656.56;5074564;28;20025;-50
2020/12/31 03:21:30;;;;;;;10.30;1.98;;;;;;;8.23;59.40;92650.47;5074517;28;20378;-47
2020/12/31 03:23:56;;;;;;;8.90;2.28;;;;;;;8.33;59.27;92651.41;5074412;28;20054;-46
2020/12/31 03:26:21;;;;;;;13.85;2.28;;;;;;;8.47;58.63;92658.16;5074434;28;20024;-44
2020/12/31 03:28:47;;;;;;;8.25;2.10;;;;;;;8.37;58.52;92657.25;5074630;28;20025;-45
2020/12/31 03:31:12;;;;;;;9.13;1.63;;;;;;;8.47;58.52;92649.19;5074212;28;20485;-46
2020/12/31 03:33:37;;;;;;;7.80;2.35;;;;;;;8.49;58.40;92643.88;5074469;28;20023;-47
2020/12/31 03:36:03;;;;;;;8.23;2.10;;;;;;;8.42;58.72;92650.84;5074286;28;20020;-46
2020/12/31 03:38:29;;;;;;;5.68;1.60;;;;;;;8.51;58.31;92646.78;5074280;28;20021;-47
2020/12/31 03:40:54;;;;;;;4.18;1.95;;;;;;;8.42;58.66;92636.34;5074098;28;20028;-45
2020/12/31 03:43:20;;;;;;;6.47;2.35;;;;;;;8.50;58.55;92643.28;5073692;28;20028;-47
2020/12/31 03:45:45;;;;;;;10.50;2.17;;;;;;;8.39;58.76;92640.94;5074102;28;20024;-45
2020/12/31 03:48:11;;;;;;;4.57;1.73;;;;;;;8.37;58.53;92641.50;5073940;28;20081;-45
2020/12/31 03:50:37;;;;;;;8.40;1.48;;;;;;;8.39;58.39;92640.94;5074228;28;20083;-48
2020/12/31 03:53:03;;;;;;;10.10;1.83;;;;;;;8.50;58.34;92628.81;5074129;28;20044;-46
2020/12/31 03:55:28;;;;;;;9.10;1.58;;;;;;;8.52;57.64;92618.72;5074107;28;20035;-46
2020/12/31 03:57:54;;;;;;;11.43;2.10;;;;;;;8.55;57.75;92614.13;5073961;28;20028;-46
2020/12/31 04:00:19;;;;;;;4.03;1.75;;;;;;;8.61;57.56;92620.16;5073891;28;20099;-46
2020/12/31 04:02:44;;;;;;;9.02;1.33;;;;;;;8.59;57.48;92617.97;5073842;28;20081;-46
2020/12/31 04:05:10;;;;;;;4.90;1.92;;;;;;;8.67;57.46;92623.41;5073135;28;20036;-46
2020/12/31 04:07:35;;;;;;;4.95;1.27;;;;;;;8.72;57.34;92617.72;5057928;28;20152;-45
2020/12/31 04:10:02;;;;;;;8.70;1.98;;;;;;;8.76;57.46;92609.06;5053687;28;20025;-44
2020/12/31 04:12:27;;;;;;;6.53;1.42;;;;;;;8.71;57.24;92621.75;5070654;28;20471;-44
2020/12/31 04:14:53;;;;;;;11.73;2.35;;;;;;;8.73;57.63;92618.44;5073696;28;20058;-44
2020/12/31 04:17:18;;;;;;;6.63;1.70;;;;;;;8.73;57.54;92618.44;5073552;28;20024;-43
2020/12/31 04:19:44;;;;;;;5.80;1.58;;;;;;;8.64;57.79;92610.78;5073524;28;20032;-43
2020/12/31 04:22:09;;;;;;;5.55;1.23;;;;;;;8.53;58.57;92606.44;5073288;28;20028;-45
2020/12/31 04:24:35;;;;;;;5.35;2.05;;;;;;;8.63;58.28;92601.81;5073602;28;20028;-46
2020/12/31 04:27:01;;;;;;;4.78;1.63;;;;;;;8.70;58.01;92608.56;5073270;28;20027;-43
2020/12/31 04:29:26;;;;;;;4.57;2.03;;;;;;;8.68;57.94;92600.88;5073342;28;20021;-44
2020/12/31 04:31:52;;;;;;;12.35;2.08;;;;;;;8.78;57.88;92598.97;5073249;28;20017;-44
2020/12/31 04:34:17;;;;;;;5.25;1.75;;;;;;;8.69;58.20;92607.09;5073062;28;20027;-44
2020/12/31 04:36:43;;;;;;;3.97;2.00;;;;;;;8.56;59.35;92610.81;5073253;28;20104;-44
2020/12/31 04:39:08;;;;;;;5.30;1.65;;;;;;;8.64;58.92;92608.75;5072830;28;20028;-43
2020/12/31 04:41:34;;;;;;;5.38;1.65;;;;;;;8.61;58.90;92600.88;5073117;28;20017;-46
2020/12/31 04:44:01;;;;;;;5.60;2.28;;;;;;;8.55;58.89;92614.84;5072720;28;20051;-44
2020/12/31 04:46:28;;;;;;;9.90;1.65;;;;;;;8.65;58.85;92612.97;5055219;28;20025;-45
2020/12/31 04:49:09;;;;;;;4.32;1.33;;;;;;;8.41;59.91;92602.59;5072931;28;20029;-45
2020/12/31 04:51:38;;;;;;;5.68;1.83;;;;;;;8.51;59.82;92611.03;5055132;28;20523;-45
2020/12/31 04:54:07;;;;;;;;;;;;;;;8.49;59.93;92602.59;5073363;28;20063;-46
2020/12/31 04:56:37;;;;;;;3.33;1.45;;;;;;;8.39;60.15;92585.94;5073264;28;20510;-45
2020/12/31 04:59:06;;;;;;;3.65;1.50;;;;;;;8.36;60.66;92601.53;5072619;28;20036;-47
2020/12/31 05:01:31;;;;;;;5.68;1.42;;;;;;;8.33;60.73;92608.16;5072696;28;20021;-46
2020/12/31 05:03:57;;;;;;;4.63;1.27;;;;;;;8.30;61.09;92603.00;5072798;28;20077;-45
2020/12/31 05:06:23;;;;;;;10.20;1.58;;;;;;;8.45;60.78;92600.22;5072470;28;20028;-45
2020/12/31 05:08:50;;;;;;;8.40;1.63;;;;;;;8.24;61.35;92589.44;5072565;28;20483;-44
2020/12/31 05:11:16;;;;;;;8.70;1.55;;;;;;;8.33;61.17;92597.16;5072277;28;20417;-44
2020/12/31 05:13:49;;;;;;;4.55;1.75;;;;;;;8.33;61.17;92599.16;5072454;28;20032;-44
2020/12/31 05:16:27;;;;;;;3.45;1.60;;;;;;;8.43;61.16;92602.78;5072595;28;20115;-45
2020/12/31 05:18:52;;;;;;;6.80;1.48;;;;;;;8.29;61.54;92596.75;5072441;28;20039;-45
2020/12/31 05:21:18;;;;;;;4.55;1.20;;;;;;;8.32;61.75;92601.16;5072388;28;20028;-44
2020/12/31 05:23:44;;;;;;;5.68;1.33;;;;;;;8.21;62.15;92595.28;5072235;28;20481;-45
2020/12/31 05:26:09;;;;;;;8.90;2.10;;;;;;;8.33;62.16;92599.16;5072200;28;20032;-44
2020/12/31 05:28:42;;;;;;;6.47;2.00;;;;;;;8.37;61.78;92603.00;5072250;28;20033;-48
2020/12/31 05:31:08;;;;;;;8.68;1.60;;;;;;;8.30;62.43;92598.25;5071959;28;20075;-45
2020/12/31 05:33:35;;;;;;;10.13;1.40;;;;;;;8.37;61.94;92594.00;5072050;28;20039;-44
2020/12/31 05:36:17;;;;;;;6.88;1.90;;;;;;;8.42;62.35;92598.59;5072155;28;20073;-48
2020/12/31 05:39:02;;;;;;;6.15;1.38;;;;;;;8.29;62.01;92587.81;5070728;28;20024;-45
2020/12/31 05:41:31;;;;;;;6.18;1.40;;;;;;;8.37;62.10;92605.75;5072030;28;20028;-44
2020/12/31 05:44:06;;;;;;;;;;;;;;;8.43;61.97;92618.56;5072171;28;20657;-43
2020/12/31 05:46:33;;;;;;;11.77;1.95;;;;;;;8.31;62.20;92596.97;5071774;28;20438;-47
2020/12/31 05:49:04;;;;;;;11.05;1.58;;;;;;;8.34;62.39;92628.09;5072055;28;20031;-45
2020/12/31 05:51:33;;;;;;;4.28;1.58;;;;;;;8.28;62.56;92608.31;5071940;28;20026;-45
2020/12/31 05:54:24;;;;;;;5.05;1.88;;;;;;;8.17;63.02;92616.94;5072002;28;20075;-44
2020/12/31 05:56:52;;;;;;;6.75;1.55;;;;;;;8.06;63.90;92614.56;5053947;28;20031;-45
2020/12/31 05:59:22;;;;;;;7.70;1.50;;;;;;;8.17;63.42;92630.69;5054111;28;20021;-44
2020/12/31 06:02:01;;;;;;;7.88;1.80;;;;;;;8.22;63.62;92635.28;5071683;28;20024;-44
2020/12/31 06:04:30;;;;;;;8.45;1.42;;;;;;;8.18;63.77;92629.41;5071584;28;20024;-46
2020/12/31 06:07:05;;;;;;;8.57;2.40;;;;;;;8.08;64.15;92634.00;5071727;28;20032;-45
2020/12/31 06:09:32;;;;;;;8.57;1.80;;;;;;;8.04;64.27;92625.38;5071717;28;20278;-45
2020/12/31 06:11:58;;;;;;;3.95;1.35;;;;;;;8.18;64.30;92632.16;5071631;28;20021;-46
2020/12/31 06:14:26;;;;;;;5.80;1.38;;;;;;;8.18;64.14;92626.66;5071630;28;20047;-43
2020/12/31 06:16:55;;;;;;;9.27;2.13;;;;;;;8.17;64.36;92639.69;5053653;28;20113;-43
2020/12/31 06:19:29;;;;;;;10.35;1.92;;;;;;;8.16;64.51;92627.22;5071561;28;20062;-43
2020/12/31 06:22:03;;;;;;;11.02;2.53;;;;;;;8.20;64.38;92633.09;5071396;28;20520;-46
2020/12/31 06:24:41;;;;;;;7.38;2.60;;;;;;;8.05;64.62;92635.13;5071280;28;20035;-45
2020/12/31 06:27:11;;;;;;;7.13;2.42;;;;;;;8.09;64.88;92627.22;5071365;28;20111;-46
2020/12/31 06:29:48;;;;;;;13.75;2.72;;;;;;;8.27;64.65;92637.84;5071047;28;20532;-44
2020/12/31 06:32:30;;;;;;;7.85;1.75;;;;;;;8.36;64.44;92631.78;5071375;28;20134;-45
2020/12/31 06:35:09;;;;;;;6.40;1.55;;;;;;;8.48;63.74;92637.63;5071335;28;20024;-46
2020/12/31 06:37:35;;;;;;;;;;;;;;;8.55;63.38;92631.38;5071739;28;20055;-45
2020/12/31 06:40:23;;;;;;;3.80;1.40;;;;;;;8.46;64.35;92640.19;5053505;28;19908;-45
2020/12/31 06:43:11;;;;;;;7.18;1.40;;;;;;;8.55;63.70;92620.38;5071382;28;20082;-46
2020/12/31 06:45:39;;;;;;;3.33;1.87;;;;;;;8.65;63.62;92637.75;5071170;28;20124;-45
2020/12/31 06:48:26;;;;;;;8.20;1.73;;;;;;;8.75;63.49;92641.38;5070837;28;20032;-44
2020/12/31 06:51:06;;;;;;;5.80;1.35;;;;;;;8.83;63.43;92642.09;5071147;28;20040;-44
2020/12/31 06:53:48;;;;;;;6.00;1.50;;;;;;;8.87;63.27;92636.94;5071181;28;20056;-46
2020/12/31 06:56:14;;;;;;;5.47;1.73;;;;;;;8.83;63.52;92646.84;5071053;28;20035;-44
2020/12/31 06:58:43;;;;;;;6.55;2.35;;;;;;;8.87;63.27;92645.19;5071121;28;20025;-44
2020/12/31 07:01:29;;;;;;;9.65;2.03;;;;;;;8.86;63.43;92637.47;5071270;28;20040;-45
2020/12/31 07:03:55;;;;;;;5.78;1.75;;;;;;;8.96;63.46;92650.09;5071072;28;20071;-44
2020/12/31 07:06:21;;;;;;;3.20;1.70;;;;;;;9.10;62.73;92643.06;5071169;28;20020;-44
2020/12/31 07:08:50;;;;;;;4.57;1.75;;;;;;;9.24;62.54;92653.81;5070959;28;20478;-45
2020/12/31 07:11:35;;;;;;;7.35;2.65;;;;;;;9.36;61.96;92644.56;5070881;28;20037;-46
2020/12/31 07:14:02;;;;;;;9.73;2.33;;;;;;;9.36;62.30;92643.81;5070981;28;20025;-44
2020/12/31 07:16:43;;;;;;;11.23;4.57;;;;;;;9.53;61.77;92639.13;5070925;28;20029;-45
2020/12/31 07:19:09;;;;;;;6.90;2.38;;;;;;;9.68;61.81;92643.81;5070935;28;20035;-45
2020/12/31 07:21:36;;;;;;;2.97;1.40;;;;;;;9.85;61.13;92641.09;5070861;28;20033;-44
2020/12/31 07:24:27;;;;;;;5.13;1.60;;;;;;;10.05;61.08;92644.81;5070946;28;20027;-46
2020/12/31 07:26:57;;;;;;;13.18;1.75;;;;;;;10.43;59.88;92647.97;5070810;28;20055;-43
2020/12/31 07:29:30;;;;;;;6.72;2.00;;;;;;;10.92;58.42;92649.81;5070906;28;20098;-44
2020/12/31 07:31:57;;;;;;;9.15;1.98;;;;;;;11.07;57.24;92639.31;5070720;28;20485;-43
2020/12/31 07:34:25;;;;;;;5.80;2.30;;;;;;;11.12;57.42;92643.88;5070862;28;20034;-43
2020/12/31 07:37:06;;;;;;;5.72;1.83;;;;;;;11.09;57.62;92645.00;5070504;28;20016;-45
2020/12/31 07:39:33;;;;;;;5.88;1.60;;;;;;;11.18;57.13;92647.09;5065737;28;20051;-44
2020/12/31 07:42:13;;;;;;;5.70;1.75;;;;;;;11.03;57.74;92650.06;5064609;28;20039;-46
2020/12/31 07:44:52;;;;;;;4.75;1.75;;;;;;;10.82;58.56;92652.53;5062005;28;20066;-45
2020/12/31 07:47:19;;;;;;;6.47;2.03;;;;;;;10.80;59.23;92654.38;5054051;28;20040;-44
2020/12/31 07:49:50;;;;;;;3.45;1.58;;;;;;;10.83;58.72;92659.47;5074106;28;20044;-49
2020/12/31 07:52:16;;;;;;;6.75;1.77;;;;;;;10.85;59.26;92654.13;5074194;28;20024;-42
2020/12/31 07:54:41;;;;;;;9.40;2.58;;;;;;;11.05;58.55;92658.50;5074067;28;20024;-42
2020/12/31 07:57:11;;;;;;;12.77;1.63;;;;;;;11.25;57.82;92645.53;5073878;28;20028;-43
2020/12/31 07:59:44;;;;;;;9.60;2.53;;;;;;;11.35;57.51;92647.06;5074055;28;20028;-45
2020/12/31 08:02:11;;;;;;;13.40;2.00;;;;;;;11.80;55.93;92648.47;5073824;28;20103;-43
2020/12/31 08:04:37;;;;;;;6.85;1.83;;;;;;;12.07;54.92;92654.69;5073733;28;20050;-45
2020/12/31 08:07:13;;;;;;;5.00;2.50;;;;;;;11.96;55.59;92660.78;5073393;28;20509;-44
2020/12/31 08:09:40;;;;;;;7.53;2.40;;;;;;;11.80;56.00;92667.13;5073233;28;20523;-44
2020/12/31 08:12:05;;;;;;;6.45;2.30;;;;;;;11.55;56.85;92653.41;5073445;28;20544;-42
2020/12/31 08:14:38;;;;;;;7.85;2.83;;;;;;;11.66;56.74;92650.13;5065307;28;20131;-45
2020/12/31 08:17:04;;;;;;;11.90;2.78;;;;;;;11.44;57.50;92662.22;5064724;28;20070;-42
2020/12/31 08:19:30;;;;;;;6.32;1.73;;;;;;;11.39;57.57;92672.25;5067435;28;20453;-45
2020/12/31 08:22:00;;;;;;;4.95;1.70;;;;;;;11.30;58.08;92655.63;5035827;28;20464;-44
2020/12/31 08:24:27;;;;;;;6.63;1.80;;;;;;;11.10;58.88;92657.53;5035730;28;20021;-52
2020/12/31 08:26:57;;;;;;;9.73;3.05;;;;;;;11.12;59.39;92652.16;5053064;28;20029;-46
2020/12/31 08:29:30;;;;;;;4.97;1.95;;;;;;;11.05;59.69;92657.75;5069028;28;20028;-44
2020/12/31 08:31:58;;;;;;;4.18;1.85;;;;;;;11.15;59.47;92653.06;5049041;28;20025;-46
2020/12/31 08:34:28;;;;;;;13.33;2.10;;;;;;;11.16;59.69;92669.03;5052844;28;20417;-45
2020/12/31 08:36:54;;;;;;;;;;;;;;;11.16;59.85;92673.84;5065947;28;20013;-43
2020/12/31 08:39:20;;;;;;;12.13;2.45;;;;;;;11.07;60.16;92671.72;5054856;28;20378;-43
2020/12/31 08:41:59;;;;;;;5.15;1.88;;;;;;;11.06;60.49;92693.13;5059087;28;20031;-42
2020/12/31 08:44:26;;;;;;;4.90;1.88;;;;;;;11.08;60.79;92687.75;5060604;28;20048;-44
2020/12/31 08:46:52;;;;;;;10.82;2.92;;;;;;;11.10;60.76;92674.09;5060498;28;20398;-42
2020/12/31 08:49:25;;;;;;;6.40;2.72;;;;;;;11.13;61.49;92691.56;5053017;28;20024;-44
2020/12/31 08:51:51;;;;;;;7.70;3.30;;;;;;;11.14;61.46;92704.06;5054248;28;20468;-42
2020/12/31 08:54:17;;;;;;;5.53;3.60;;;;;;;11.05;62.44;92699.19;5059435;28;20098;-43
2020/12/31 08:56:42;;;;;;;7.43;3.35;;;;;;;10.99;63.16;92704.25;5079831;28;20529;-44
2020/12/31 08:59:09;;;;;;;11.52;4.57;;;;;;;10.77;63.43;92700.41;5070644;28;20031;-44
2020/12/31 09:01:35;;;;;;;16.83;6.22;;;;;;;10.90;63.64;92707.66;5072646;28;20036;-43
2020/12/31 09:04:29;;;;;;;7.88;3.28;;;;;;;10.84;64.58;92715.44;5072834;28;20020;-44
2020/12/31 09:06:57;;;;;;;11.15;3.67;;;;;;;10.59;65.49;92718.25;5058870;28;20037;-43
2020/12/31 09:09:28;;;;;;;14.93;5.90;;;;;;;10.57;66.30;92718.84;5049366;28;20428;-46
2020/12/31 09:12:03;;;;;;;8.13;5.15;;;;;;;10.02;69.04;92721.13;5050557;28;20501;-45
2020/12/31 09:14:30;;;;;;;18.90;6.68;;;;;;;10.02;70.54;92726.63;5060027;28;20079;-44
2020/12/31 09:16:56;;;;;;;16.60;7.70;;;;;;;9.80;70.82;92730.28;5064616;28;20028;-47
2020/12/31 09:19:22;;;;;;;18.08;9.95;;;;;;;9.62;71.67;92723.94;5063233;28;20017;-46
2020/12/31 09:21:47;;;;;;;21.90;6.45;;;;;;;9.63;71.20;92710.91;5058131;28;20017;-46
2020/12/31 09:24:18;;;;;;;7.47;2.80;;;;;;;9.78;71.67;92697.03;5068931;28;20028;-46
2020/12/31 09:26:57;;;;;;;10.45;3.83;;;;;;;9.65;73.82;92698.03;5066604;28;20067;-46
2020/12/31 09:29:23;;;;;;;3.65;1.83;;;;;;;9.68;73.79;92680.34;5071110;28;20472;-47
2020/12/31 09:31:50;;;;;;;12.85;5.50;;;;;;;9.40;75.81;92683.47;5072083;28;20028;-46
2020/12/31 09:34:15;;;;;;;15.68;5.78;;;;;;;9.84;76.90;92687.22;5072018;28;20024;-48
2020/12/31 09:36:41;;;;;;;10.88;4.30;;;;;;;10.21;76.73;92685.50;5072033;28;20020;-46
2020/12/31 09:39:06;;;;;;;9.68;4.40;;;;;;;10.48;75.35;92700.16;5071529;28;20025;-47
2020/12/31 09:41:32;;;;;;;10.10;4.72;;;;;;;10.73;74.09;92716.66;5071296;28;20496;-46
2020/12/31 09:43:57;;;;;;;6.53;3.80;;;;;;;10.91;73.01;92709.13;5071298;28;20456;-45
2020/12/31 09:46:23;;;;;;;10.50;5.90;;;;;;;11.06;71.66;92714.47;5071465;28;20113;-46
2020/12/31 09:48:49;;;;;;;12.32;5.70;;;;;;;11.17;69.75;92711.22;5071674;28;20401;-46
2020/12/31 09:51:18;;;;;;;15.55;6.60;;;;;;;11.36;69.21;92716.88;5071332;28;20024;-46
2020/12/31 09:53:44;;;;;;;;;;;;;;;11.37;69.05;92716.31;5071936;28;20101;-46
2020/12/31 09:56:10;;;;;;;11.05;4.05;;;;;;;11.46;68.25;92723.19;5072003;28;20427;-45
2020/12/31 09:58:35;;;;;;;8.52;3.80;;;;;;;11.52;69.31;92714.66;5071800;28;20021;-47
2020/12/31 10:01:03;;;;;;;13.93;6.78;;;;;;;11.61;68.66;92711.94;5071811;28;20378;-45
2020/12/31 10:03:28;;;;;;;13.00;5.68;;;;;;;11.59;69.56;92727.63;5070884;28;20531;-45
2020/12/31 10:05:54;;;;;;;12.43;5.43;;;;;;;11.68;69.07;92721.47;5070833;28;20025;-46
2020/12/31 10:08:20;;;;;;;10.57;6.05;;;;;;;11.17;71.83;92698.16;5071645;28;20090;-46
2020/12/31 10:10:46;;;;;;;15.75;7.72;;;;;;;11.47;71.21;92710.13;5071539;28;20417;-46
2020/12/31 10:13:11;;;;;;;18.40;9.38;;;;;;;11.56;70.57;92687.34;5071375;28;20025;-49
2020/12/31 10:15:37;;;;;;;10.35;4.93;;;;;;;11.46;70.09;92703.84;5071520;28;20032;-46
2020/12/31 10:18:03;;;;;;;10.80;4.15;;;;;;;11.74;70.14;92697.78;5071475;28;20027;-49
2020/12/31 10:20:28;;;;;;;4.88;2.63;;;;;;;11.91;68.45;92691.47;5052929;28;20451;-45
2020/12/31 10:22:54;;;;;;;15.15;4.28;;;;;;;11.70;69.15;92686.41;5071377;28;20115;-45
2020/12/31 10:25:20;;;;;;;10.80;4.60;;;;;;;11.17;70.06;92692.63;5071460;28;20024;-48
2020/12/31 10:27:45;;;;;;;24.73;7.63;;;;;;;10.98;72.30;92675.16;5070603;28;20025;-45
2020/12/31 10:30:11;;;;;;;56.00;15.80;;;;;;;11.25;72.72;92676.69;5070833;28;20070;-45
2020/12/31 10:32:36;;;;;;;24.83;9.63;;;;;;;11.39;72.23;92660.47;5071022;28;20095;-46
2020/12/31 10:35:01;;;;;;;19.42;5.53;;;;;;;11.58;71.39;92666.09;5071069;28;20024;-48
2020/12/31 10:37:27;;;;;;;26.55;8.18;;;;;;;11.61;71.02;92669.75;5063890;28;20028;-45
2020/12/31 10:39:53;;;;;;;79.00;23.27;;;;;;;11.75;70.42;92679.91;5069997;28;20451;-47
2020/12/31 10:42:19;;;;;;;17.27;7.03;;;;;;;11.79;70.26;92671.91;5070141;28;20025;-45
2020/12/31 10:44:44;;;;;;;12.20;5.25;;;;;;;11.75;69.39;92638.41;5069892;28;20094;-45
2020/12/31 10:47:10;;;;;;;17.52;9.02;;;;;;;11.83;69.19;92658.38;5069814;28;20034;-45
2020/12/31 10:49:35;;;;;;;13.25;6.65;;;;;;;11.86;68.92;92656.50;5069913;28;20025;-45
2020/12/31 10:52:01;;;;;;;7.47;2.85;;;;;;;11.68;69.29;92638.53;5070153;28;20024;-46
2020/12/31 10:54:26;;;;;;;6.82;3.67;;;;;;;11.67;68.91;92646.09;5069903;28;20023;-45
2020/12/31 10:56:57;;;;;;;18.08;6.13;;;;;;;11.72;69.25;92633.28;5070007;28;20099;-45
2020/12/31 10:59:24;;;;;;;10.95;4.93;;;;;;;11.72;69.04;92631.25;5069574;28;20021;-47
2020/12/31 11:01:53;;;;;;;6.03;2.78;;;;;;;11.82;67.39;92623.75;5069760;28;20024;-46
2020/12/31 11:04:19;;;;;;;3.38;2.13;;;;;;;12.01;66.71;92640.41;5069636;28;20059;-46
2020/12/31 11:06:45;;;;;;;9.27;3.42;;;;;;;11.97;65.12;92622.78;5069922;28;20025;-45
2020/12/31 11:09:10;;;;;;;16.42;7.65;;;;;;;12.03;65.30;92631.53;5069262;28;20029;-45
2020/12/31 11:11:37;;;;;;;12.07;4.93;;;;;;;12.07;65.90;92620.75;5069099;28;20035;-46
2020/12/31 11:14:03;;;;;;;9.30;4.05;;;;;;;12.16;64.89;92620.06;5069406;28;20024;-45
2020/12/31 11:16:28;;;;;;;5.40;2.78;;;;;;;12.17;62.65;92607.69;5071108;28;20058;-45
2020/12/31 11:18:54;;;;;;;11.40;4.40;;;;;;;12.13;63.58;92605.34;5073303;28;20542;-47
2020/12/31 11:21:20;;;;;;;2.15;1.70;;;;;;;12.25;62.94;92604.78;5072973;28;20020;-47
2020/12/31 11:23:45;;;;;;;2.03;1.17;;;;;;;12.27;61.73;92594.59;5072751;28;20396;-46
2020/12/31 11:26:15;;;;;;;5.65;1.63;;;;;;;12.23;60.81;92591.53;5072941;28;20051;-46
2020/12/31 11:28:41;;;;;;;4.88;1.38;;;;;;;12.23;60.50;92594.31;5072758;28;20025;-47
2020/12/31 11:31:09;;;;;;;11.25;2.25;;;;;;;12.03;58.85;92579.69;5073069;28;20048;-45
2020/12/31 11:33:34;;;;;;;2.53;1.50;;;;;;;12.13;57.12;92583.19;5073059;28;20063;-46
2020/12/31 11:36:00;;;;;;;2.65;1.42;;;;;;;12.25;58.93;92590.94;5073010;28;20135;-45
2020/12/31 11:38:26;;;;;;;5.25;1.33;;;;;;;12.19;56.64;92578.09;5073027;28;20020;-45
2020/12/31 11:40:52;;;;;;;7.75;1.92;;;;;;;12.24;58.08;92595.75;5073129;28;20577;-46